createdAt,value
2023-03-22T17:08:07.973Z,13864.9229
2023-03-22T17:09:09.378Z,14372.3076
2023-03-22T17:10:11.080Z,14432.0000
2023-03-22T17:11:12.685Z,14436.6924
2023-03-22T17:12:14.326Z,14434.1543
2023-03-22T17:13:15.985Z,14439.1543
2023-03-22T17:14:17.638Z,14441.7695
2023-03-22T17:15:19.271Z,14443.4619
2023-03-22T17:16:20.938Z,14433.2305
2023-03-22T17:17:22.605Z,14395.3076
2023-03-22T17:18:24.205Z,14377.0771
2023-03-22T17:19:25.885Z,14366.7695
2023-03-22T17:20:27.498Z,14330.2305
2023-03-22T17:21:29.135Z,14305.4619
2023-03-22T17:22:30.794Z,14299.3076
2023-03-22T17:23:32.484Z,14286.0771
2023-03-22T17:24:34.097Z,14255.0771
2023-03-22T17:25:35.759Z,14238.6924
2023-03-22T17:26:37.405Z,14250.4619
2023-03-22T17:27:39.036Z,14243.0000
2023-03-22T17:28:40.694Z,14227.3076
2023-03-22T17:29:42.332Z,14226.6152
2023-03-22T17:30:43.981Z,14222.3848
2023-03-22T17:31:53.472Z,14213.8457
2023-03-22T17:32:59.603Z,14196.3848
2023-03-22T17:33:48.970Z,14180.5381
2023-03-22T17:34:50.604Z,14183.7695
2023-03-22T17:35:52.229Z,14197.2305
2023-03-22T17:36:53.904Z,14182.3848
2023-03-22T17:37:56.224Z,14206.4619
2023-03-22T17:39:17.939Z,14189.6924
2023-03-22T17:40:20.963Z,14193.2305
2023-03-22T17:41:02.499Z,14166.7695
2023-03-22T17:42:02.170Z,14152.6924
2023-03-22T17:43:03.830Z,14132.5381
2023-03-22T17:44:05.479Z,14150.2305
2023-03-22T17:45:08.121Z,14160.3076
2023-03-22T17:46:38.285Z,14168.7695
2023-03-22T17:48:12.141Z,14270.7695
2023-03-22T17:49:13.759Z,14479.8457
2023-03-22T17:50:15.400Z,14567.1543
2023-03-22T17:51:17.081Z,14617.3076
2023-03-22T17:52:18.727Z,14602.5381
2023-03-22T17:53:43.373Z,14579.9229
2023-03-22T17:54:52.565Z,14593.3848
2023-03-22T17:55:30.049Z,14561.3076
2023-03-22T17:57:01.030Z,14536.0771
2023-03-22T17:58:05.022Z,14496.1543
2023-03-22T17:58:41.332Z,14460.5381
2023-03-22T17:59:30.290Z,14372.7695
2023-03-22T18:00:31.918Z,14334.7695
2023-03-22T18:01:33.815Z,14343.4619
2023-03-22T18:02:35.241Z,14341.1543
2023-03-22T18:03:36.874Z,14344.0771
2023-03-22T18:04:38.518Z,14352.9229
2023-03-22T18:05:40.152Z,14353.0000
2023-03-22T18:06:41.775Z,14353.0771
2023-03-22T18:07:43.435Z,14350.3076
2023-03-22T18:08:45.119Z,14354.6152
2023-03-22T18:09:46.791Z,14359.9229
2023-03-22T18:10:48.395Z,14352.4619
2023-03-22T18:11:50.060Z,14352.0000
2023-03-22T18:12:51.773Z,14352.5381
2023-03-22T18:13:59.289Z,14351.9229
2023-03-22T18:14:55.005Z,14351.0771
2023-03-22T18:15:56.663Z,14348.0771
2023-03-22T18:16:58.318Z,14347.0771
2023-03-22T18:17:59.978Z,14346.0000
2023-03-22T18:19:01.612Z,14345.4619
2023-03-22T18:20:14.808Z,14351.0000
2023-03-22T18:21:04.900Z,14351.8457
2023-03-22T18:22:06.586Z,14349.7695
2023-03-22T18:23:08.241Z,14348.3848
2023-03-22T18:24:09.877Z,14349.5381
2023-03-22T18:25:12.085Z,14347.9229
2023-03-22T18:26:27.147Z,14343.9229
2023-03-22T18:27:15.874Z,14340.7695
2023-03-22T18:28:16.513Z,14338.8457
2023-03-22T18:29:18.142Z,14344.8457
2023-03-22T18:30:19.816Z,14341.6152
2023-03-22T18:31:21.508Z,14336.2305
2023-03-22T18:32:30.409Z,14340.2305
2023-03-22T18:33:24.745Z,14325.0000
2023-03-22T18:34:26.402Z,14324.1543
2023-03-22T18:35:28.108Z,14326.4619
2023-03-22T18:36:29.808Z,14327.4619
2023-03-22T18:37:31.416Z,14320.6924
2023-03-22T18:39:13.339Z,14316.5381
2023-03-22T18:40:08.052Z,14317.6152
2023-03-22T18:42:48.501Z,14307.2305
2023-03-22T18:43:42.205Z,14306.6152
2023-03-22T18:44:42.873Z,14296.3076
2023-03-22T18:45:58.531Z,14307.3076
2023-03-22T18:46:46.260Z,14314.0000
2023-03-22T18:47:47.865Z,14307.7695
2023-03-22T18:48:49.517Z,14306.2305
2023-03-22T18:49:51.188Z,14312.6924
2023-03-22T18:50:57.101Z,14308.0771
2023-03-22T18:52:32.779Z,14304.0771
2023-03-22T18:53:57.760Z,14300.6152
2023-03-22T18:55:15.067Z,14298.2305
2023-03-22T18:57:02.735Z,14300.3848
2023-03-22T18:58:04.376Z,14302.6924
2023-03-22T18:59:05.992Z,14292.2305
2023-03-22T19:00:07.680Z,14287.1543
2023-03-22T19:01:09.316Z,14330.8457
2023-03-22T19:02:15.969Z,14359.0771
2023-03-22T19:03:12.580Z,14318.4619
2023-03-22T19:04:14.259Z,14307.2305
2023-03-22T19:05:15.901Z,14321.3848
2023-03-22T19:06:17.556Z,14306.3076
2023-03-22T19:07:35.622Z,14294.1543
2023-03-22T19:08:27.164Z,14286.0000
2023-03-22T19:09:22.482Z,14288.4619
2023-03-22T19:10:25.166Z,14297.4619
2023-03-22T19:11:25.835Z,14290.6152
2023-03-22T19:12:27.429Z,14299.9229
2023-03-22T19:13:29.100Z,14298.0771
2023-03-22T19:15:17.488Z,14294.6152
2023-03-22T19:16:34.058Z,14317.5381
2023-03-22T19:17:35.713Z,14294.4619
2023-03-22T19:18:37.353Z,14300.7695
2023-03-22T19:19:39.353Z,14298.3848
2023-03-22T19:20:40.901Z,14296.3848
2023-03-22T19:21:42.320Z,14313.8457
2023-03-22T19:22:43.977Z,14311.7695
2023-03-22T19:23:45.620Z,14296.4619
2023-03-22T19:24:47.293Z,14288.1543
2023-03-22T19:25:48.921Z,14280.2305
2023-03-22T19:27:01.632Z,14280.4619
2023-03-22T19:27:52.204Z,14304.1543
2023-03-22T19:28:53.846Z,14304.0000
2023-03-22T19:29:55.500Z,14294.0000
2023-03-22T19:30:57.150Z,14304.8457
2023-03-22T19:31:58.843Z,14276.2305
2023-03-22T19:33:24.158Z,14289.7695
2023-03-22T19:34:02.103Z,14288.0000
2023-03-22T19:35:03.785Z,14281.8457
2023-03-22T19:36:05.444Z,14278.3076
2023-03-22T19:37:07.098Z,14270.6152
2023-03-22T19:38:08.706Z,14272.6152
2023-03-22T19:39:12.290Z,14280.0771
2023-03-22T19:41:06.142Z,14280.8457
2023-03-22T19:41:33.645Z,14269.6924
2023-03-22T19:43:16.958Z,14280.3076
2023-03-22T19:44:18.633Z,14275.5381
2023-03-22T19:45:20.273Z,14271.5381
2023-03-22T19:46:21.932Z,14264.6924
2023-03-22T19:47:23.614Z,14261.1543
2023-03-22T19:48:25.299Z,14264.0000
2023-03-22T19:49:26.901Z,14265.3848
2023-03-22T19:50:28.497Z,14267.3848
2023-03-22T19:51:30.150Z,14269.6152
2023-03-22T19:52:31.814Z,14265.2305
2023-03-22T19:54:44.935Z,14269.9229
2023-03-22T19:55:36.759Z,14267.2305
2023-03-22T19:56:38.398Z,14271.3848
2023-03-22T19:57:40.268Z,14264.2305
2023-03-22T19:58:41.742Z,14265.7695
2023-03-22T19:59:55.208Z,14266.8457
2023-03-22T20:00:45.921Z,14265.5381
2023-03-22T20:01:47.307Z,14264.2305
2023-03-22T20:02:48.380Z,14262.7695
2023-03-22T20:03:49.987Z,14282.8457
2023-03-22T20:04:51.646Z,14269.0771
2023-03-22T20:05:53.465Z,14269.4619
2023-03-22T20:06:55.460Z,14275.3076
2023-03-22T20:07:56.607Z,14294.3848
2023-03-22T20:08:58.245Z,14251.1543
2023-03-22T20:09:59.906Z,14232.6152
2023-03-22T20:11:02.292Z,14240.5381
2023-03-22T20:12:03.180Z,14239.3848
2023-03-22T20:13:04.936Z,14243.0000
2023-03-22T20:14:06.459Z,14250.6152
2023-03-22T20:15:08.151Z,14260.8457
2023-03-22T20:16:09.808Z,14270.1543
2023-03-22T20:17:15.243Z,14263.0000
2023-03-22T20:18:13.084Z,14261.3848
2023-03-22T20:19:14.746Z,14276.6152
2023-03-22T20:20:16.365Z,14272.5381
2023-03-22T20:21:18.012Z,14264.9229
2023-03-22T20:22:19.696Z,14266.3076
2023-03-22T20:23:21.342Z,14264.0000
2023-03-22T20:24:22.977Z,14249.9229
2023-03-22T20:25:24.659Z,14258.3848
2023-03-22T20:26:26.289Z,14261.7695
2023-03-22T20:27:27.916Z,14259.0000
2023-03-22T20:28:29.596Z,14262.3076
2023-03-22T20:29:31.211Z,14264.7695
2023-03-22T20:30:32.871Z,14268.7695
2023-03-22T20:31:34.514Z,14261.7695
2023-03-22T20:32:36.191Z,14265.3848
2023-03-22T20:33:37.874Z,14263.2305
2023-03-22T20:34:39.502Z,14261.0000
2023-03-22T20:35:41.319Z,14270.3076
2023-03-22T20:36:42.810Z,14273.5381
2023-03-22T20:37:44.459Z,14266.5381
2023-03-22T20:38:46.138Z,14262.4619
2023-03-22T20:39:47.733Z,14264.3848
2023-03-22T20:40:49.387Z,14275.6152
2023-03-22T20:41:51.072Z,14268.4619
2023-03-22T20:42:52.696Z,14276.3076
2023-03-22T20:43:54.337Z,14293.7695
2023-03-22T20:44:55.992Z,14315.0000
2023-03-22T20:45:57.640Z,14282.8457
2023-03-22T20:46:59.305Z,14282.5381
2023-03-22T20:48:00.955Z,14279.4619
2023-03-22T20:49:02.613Z,14282.0771
2023-03-22T20:50:04.215Z,14282.6924
2023-03-22T20:51:05.866Z,14289.7695
2023-03-22T20:52:07.507Z,14281.6924
2023-03-22T20:53:09.184Z,14273.9229
2023-03-22T20:54:10.842Z,14276.3076
2023-03-22T20:55:12.458Z,14274.3076
2023-03-22T20:56:14.141Z,14285.4619
2023-03-22T20:57:15.763Z,14288.6924
2023-03-22T20:58:17.446Z,14281.9229
2023-03-22T20:59:19.102Z,14226.6924
2023-03-22T21:00:20.743Z,14212.3076
2023-03-22T21:01:22.409Z,14182.3076
2023-03-22T21:02:24.101Z,14198.2305
2023-03-22T21:03:25.723Z,14226.6152
2023-03-22T21:04:27.413Z,14209.0000
2023-03-22T21:05:29.029Z,14216.6924
2023-03-22T21:06:30.645Z,14229.3076
2023-03-22T21:07:32.315Z,14227.1543
2023-03-22T21:08:34.006Z,14224.3076
2023-03-22T21:09:35.609Z,14223.4619
2023-03-22T21:10:37.348Z,14245.6924
2023-03-22T21:11:38.985Z,14273.0771
2023-03-22T21:12:40.623Z,14242.1543
2023-03-22T21:13:42.295Z,14250.4619
2023-03-22T21:14:43.981Z,14229.2305
2023-03-22T21:15:45.589Z,14214.6924
2023-03-22T21:16:47.823Z,14207.0771
2023-03-22T21:17:49.432Z,14224.0000
2023-03-22T21:18:50.523Z,14219.5381
2023-03-22T21:19:52.195Z,14225.8457
2023-03-22T21:20:53.939Z,14233.3848
2023-03-22T21:21:59.965Z,14235.6924
2023-03-22T21:22:57.138Z,14231.7695
2023-03-22T21:23:58.816Z,14243.9229
2023-03-22T21:25:00.477Z,14239.3848
2023-03-22T21:26:02.100Z,14243.0771
2023-03-22T21:27:03.737Z,14244.1543
2023-03-22T21:28:05.396Z,14240.2305
2023-03-22T21:29:07.070Z,14233.7695
2023-03-22T21:30:08.725Z,14239.8457
2023-03-22T21:31:10.496Z,14244.0771
2023-03-22T21:32:11.987Z,14246.1543
2023-03-22T21:33:13.635Z,14252.4619
2023-03-22T21:34:15.304Z,14247.4619
2023-03-22T21:35:16.943Z,14253.6924
2023-03-22T21:36:18.616Z,14252.4619
2023-03-22T21:37:20.216Z,14251.6152
2023-03-22T21:38:21.874Z,14252.7695
2023-03-22T21:39:23.520Z,14249.6152
2023-03-22T21:40:25.186Z,14255.6152
2023-03-22T21:41:26.826Z,14252.0771
2023-03-22T21:42:28.458Z,14257.1543
2023-03-22T21:43:30.108Z,14246.6924
2023-03-22T21:44:31.801Z,14252.8457
2023-03-22T21:45:33.422Z,14246.2305
2023-03-22T21:46:35.056Z,14241.5381
2023-03-22T21:47:36.716Z,14249.0771
2023-03-22T21:48:38.367Z,14247.2305
2023-03-22T21:49:40.010Z,14242.1543
2023-03-22T21:50:41.685Z,14238.2305
2023-03-22T21:51:43.336Z,14231.7695
2023-03-22T21:52:45.025Z,14238.8457
2023-03-22T21:53:46.610Z,14241.3076
2023-03-22T21:54:48.271Z,14238.3848
2023-03-22T21:55:49.958Z,14247.6152
2023-03-22T21:56:51.596Z,14242.3076
2023-03-22T21:57:53.341Z,14244.0771
2023-03-22T21:58:54.891Z,14245.6152
2023-03-22T21:59:56.548Z,14237.3076
2023-03-22T22:00:58.231Z,14237.5381
2023-03-22T22:01:59.843Z,14234.3848
2023-03-22T22:03:01.520Z,14238.7695
2023-03-22T22:04:03.142Z,14240.0771
2023-03-22T22:05:04.781Z,14237.9229
2023-03-22T22:06:06.612Z,14243.8457
2023-03-22T22:07:08.066Z,14247.8457
2023-03-22T22:08:09.720Z,14247.5381
2023-03-22T22:09:11.362Z,14242.9229
2023-03-22T22:10:13.032Z,14243.7695
2023-03-22T22:11:14.685Z,14242.7695
2023-03-22T22:12:16.549Z,14244.4619
2023-03-22T22:13:18.001Z,14241.1543
2023-03-22T22:14:19.654Z,14245.4619
2023-03-22T22:15:21.295Z,14245.8457
2023-03-22T22:16:22.987Z,14250.1543
2023-03-22T22:17:24.623Z,14248.2305
2023-03-22T22:18:26.236Z,14247.9229
2023-03-22T22:19:27.918Z,14249.8457
2023-03-22T22:20:29.559Z,14248.6924
2023-03-22T22:21:31.204Z,14242.8457
2023-03-22T22:22:32.862Z,14236.9229
2023-03-22T22:23:34.491Z,14234.7695
2023-03-22T22:24:36.163Z,14237.2305
2023-03-22T22:25:37.800Z,14241.8457
2023-03-22T22:26:39.462Z,14244.0000
2023-03-22T22:27:41.210Z,14242.9229
2023-03-22T22:28:42.732Z,14239.0000
2023-03-22T22:29:44.391Z,14235.4619
2023-03-22T22:30:46.024Z,14237.7695
2023-03-22T22:31:47.681Z,14238.3076
2023-03-22T22:32:49.336Z,14239.6924
2023-03-22T22:33:51.011Z,14239.0771
2023-03-22T22:34:52.641Z,14237.6924
2023-03-22T22:35:54.338Z,14237.9229
2023-03-22T22:36:55.943Z,14243.0000
2023-03-22T22:37:57.581Z,14245.7695
2023-03-22T22:38:59.205Z,14246.0000
2023-03-22T22:40:00.860Z,14249.0000
2023-03-22T22:41:02.538Z,14245.7695
2023-03-22T22:42:04.168Z,14251.2305
2023-03-22T22:43:05.824Z,14244.7695
2023-03-22T22:44:07.452Z,14245.7695
2023-03-22T22:45:09.128Z,14258.6924
2023-03-22T22:46:10.826Z,14259.3848
2023-03-22T22:47:12.536Z,14259.2305
2023-03-22T22:48:14.092Z,14255.3076
2023-03-22T22:49:15.743Z,14253.6924
2023-03-22T22:50:17.404Z,14250.2305
2023-03-22T22:51:19.071Z,14248.6924
2023-03-22T22:52:20.725Z,14254.0771
2023-03-22T22:53:22.348Z,14255.0771
2023-03-22T22:54:23.988Z,14257.1543
2023-03-22T22:55:25.651Z,14261.3848
2023-03-22T22:56:27.324Z,14257.6152
2023-03-22T22:57:28.966Z,14258.0771
2023-03-22T22:58:30.607Z,14264.1543
2023-03-22T22:59:32.262Z,14261.3076
2023-03-22T23:00:33.902Z,14257.0771
2023-03-22T23:01:35.534Z,14251.4619
2023-03-22T23:02:37.232Z,14249.3076
2023-03-22T23:03:38.834Z,14246.1543
2023-03-22T23:04:40.502Z,14244.6924
2023-03-22T23:05:42.427Z,14254.1543
2023-03-22T23:06:43.788Z,14254.8457
2023-03-22T23:07:45.471Z,14256.0771
2023-03-22T23:08:47.101Z,14255.7695
2023-03-22T23:09:48.765Z,14250.7695
2023-03-22T23:10:50.406Z,14254.4619
2023-03-22T23:11:52.089Z,14253.8457
2023-03-22T23:12:53.773Z,14252.6152
2023-03-22T23:13:55.383Z,14252.9229
2023-03-22T23:14:57.042Z,14255.3848
2023-03-22T23:15:58.701Z,14252.0000
2023-03-22T23:17:00.347Z,14257.5381
2023-03-22T23:18:09.771Z,14249.8457
2023-03-22T23:19:03.626Z,14252.0771
2023-03-22T23:20:05.309Z,14244.9229
2023-03-22T23:21:06.926Z,14251.4619
2023-03-22T23:22:08.594Z,14248.3848
2023-03-22T23:23:10.262Z,14250.7695
2023-03-22T23:24:11.905Z,14253.0771
2023-03-22T23:25:13.554Z,14248.3076
2023-03-22T23:26:15.207Z,14250.6152
2023-03-22T23:27:16.870Z,14249.9229
2023-03-22T23:28:18.566Z,14251.1543
2023-03-22T23:29:20.236Z,14250.1543
2023-03-22T23:30:21.832Z,14244.6924
2023-03-22T23:31:23.486Z,14245.4619
2023-03-22T23:32:25.167Z,14247.6152
2023-03-22T23:33:26.823Z,14250.3076
2023-03-22T23:34:28.491Z,14254.8457
2023-03-22T23:35:30.143Z,14247.6924
2023-03-22T23:36:31.778Z,14239.6924
2023-03-22T23:37:33.436Z,14243.3848
2023-03-22T23:38:35.111Z,14237.9229
2023-03-22T23:39:36.730Z,14238.9229
2023-03-22T23:40:38.425Z,14243.0000
2023-03-22T23:41:40.053Z,14246.9229
2023-03-22T23:42:41.698Z,14246.3848
2023-03-22T23:43:43.373Z,14245.6152
2023-03-22T23:44:45.015Z,14246.9229
2023-03-22T23:45:46.665Z,14258.0000
2023-03-22T23:46:48.341Z,14251.2305
2023-03-22T23:47:49.983Z,14251.6924
2023-03-22T23:48:51.627Z,14240.1543
2023-03-22T23:49:53.283Z,14230.0000
2023-03-22T23:50:54.933Z,14223.0771
2023-03-22T23:51:56.576Z,14221.4619
2023-03-22T23:52:58.248Z,14227.8457
2023-03-22T23:53:59.912Z,14221.7695
2023-03-22T23:55:01.548Z,14220.5381
2023-03-22T23:56:03.212Z,14224.6924
2023-03-22T23:57:04.861Z,14220.9229
2023-03-22T23:58:06.511Z,14217.1543
2023-03-22T23:59:08.208Z,14230.1543
